Arlington, TX

11:23 AM CST on February 13, 2016 (GMT -0600)
Turf Club Estates | | Change Station
CLOSE
Current Station
Personal Weather Station
Location: Arlington, TX
Elevation: 639 ft
Nearby Weather Stations

Elev 639 ft 32.65 °N, 97.14 °W | Updated 8 seconds ago

Clear
Clear
55.8 °F
Feels Like 55.8 °F
N
0.0
Wind Variable Wind from NNE
Gusts 0.0 mph

Today
High -- | Low -- °F
--% Chance of Precip.
Yesterday
High -- | Low -- °F
Precip. -- in
Pressure 30.38 in
Visibility 10.0 miles
Clouds Clear
Dew Point 39 °F
Humidity 54%
Rainfall 0.00 in
Snow Depth Not available.
7:13 AM 6:12 PM
Waxing Crescent, 32% visible
METAR KGKY 131653Z 11009KT 10SM CLR 14/02 A3038 RMK AO2 SLP285 T01390022
Pressure 30.38 in
Visibility 10.0 miles
Clouds Clear
Dew Point 39 °F
Humidity 54%
Rainfall 0.00 in
Snow Depth Not available.
7:13 AM 6:12 PM
Waxing Crescent, 32% visible
METAR KGKY 131653Z 11009KT 10SM CLR 14/02 A3038 RMK AO2 SLP285 T01390022

10-Day Weather Forecast

Almanac

Astronomy

Feb. 13, 2016 Rise Set
Actual Time
Civil Twilight
Nautical Twilight
Astronomical Twilight
Moon
Length of Visible Light
Length of Day
Tomorrow will be .
, % of the Moon is Illuminated

Today's Extremes

State Highs State Lows

Community

WunderPhotos

Upload Photos

1,892,620 photos uploaded!

WunderBlog® & News

Nearby

Air Quality

  Air Quality AQ Index Pollutant
Not available.

Snow Depth

Station Depth Elevation

Earthquake Activity

City Distance Mag. Time & Date
Minimum magnitude displayed is 2.5.

Coastal Water Temperatures

Place Temperature

Stations

Nearby Weather Stations

Station Location Temp. Windchill Dew Point Humidity Wind Precip. Elev Updated Type
                   

Watches & Warnings

There are currently no watches in effect.